createdAt,value
2018-06-05T00:01:00.476Z,16.20
2018-06-05T00:03:28.751Z,16.20
2018-06-05T00:05:57.166Z,16.20
2018-06-05T00:08:25.404Z,16.30
2018-06-05T00:10:53.643Z,16.20
2018-06-05T00:13:21.859Z,16.30
2018-06-05T00:15:50.132Z,16.30
2018-06-05T00:18:18.364Z,16.30
2018-06-05T00:20:46.578Z,16.20
2018-06-05T00:23:14.780Z,16.20
2018-06-05T00:25:42.936Z,16.10
2018-06-05T00:30:39.091Z,16.10
2018-06-05T00:33:07.289Z,16.10
2018-06-05T00:35:35.731Z,16.10
2018-06-05T00:38:04.013Z,16.10
2018-06-05T00:40:32.202Z,16.10
2018-06-05T00:43:00.393Z,16.10
2018-06-05T00:45:29.832Z,16.10
2018-06-05T00:47:58.178Z,16.10
2018-06-05T00:50:26.427Z,16.10
2018-06-05T00:52:54.668Z,16.10
2018-06-05T00:55:22.970Z,16.10
2018-06-05T00:57:51.140Z,16.10
2018-06-05T01:00:19.304Z,16.00
2018-06-05T01:02:47.523Z,16.00
2018-06-05T01:05:15.832Z,16.00
2018-06-05T01:07:44.085Z,16.00
2018-06-05T01:10:12.298Z,16.00
2018-06-05T01:15:08.506Z,16.00
2018-06-05T01:17:37.114Z,16.10
2018-06-05T01:20:05.352Z,16.10
2018-06-05T01:22:33.710Z,16.10
2018-06-05T01:25:01.941Z,16.10
2018-06-05T01:27:30.194Z,16.10
2018-06-05T01:29:58.955Z,16.10
2018-06-05T01:32:27.176Z,16.10
2018-06-05T01:34:55.400Z,16.00
2018-06-05T01:37:23.716Z,16.10
2018-06-05T01:39:51.925Z,16.10
2018-06-05T01:42:20.106Z,16.10
2018-06-05T01:44:48.319Z,16.10
2018-06-05T01:47:16.673Z,16.10
2018-06-05T01:49:44.884Z,16.10
2018-06-05T01:54:47.679Z,16.10
2018-06-05T01:57:15.960Z,16.10
2018-06-05T01:59:44.172Z,16.10
2018-06-05T02:02:12.417Z,16.20
2018-06-05T02:04:40.580Z,16.20
2018-06-05T02:07:08.848Z,16.30
2018-06-05T02:09:37.286Z,16.30
2018-06-05T02:12:05.461Z,16.30
2018-06-05T02:14:33.710Z,16.30
2018-06-05T02:17:01.954Z,16.30
2018-06-05T02:19:30.248Z,16.20
2018-06-05T02:21:59.086Z,16.20
2018-06-05T02:24:27.295Z,16.20
2018-06-05T02:26:55.594Z,16.20
2018-06-05T02:29:23.848Z,16.20
2018-06-05T02:31:52.129Z,16.20
2018-06-05T02:34:20.426Z,16.20
2018-06-05T02:36:48.782Z,16.10
2018-06-05T02:39:16.969Z,16.10
2018-06-05T02:41:45.252Z,16.00
2018-06-05T02:44:13.486Z,16.00
2018-06-05T02:46:41.904Z,16.00
2018-06-05T02:49:10.103Z,16.00
2018-06-05T02:51:38.393Z,16.00
2018-06-05T02:54:06.635Z,16.00
2018-06-05T02:59:02.940Z,16.10
2018-06-05T03:01:31.228Z,16.10
2018-06-05T03:03:59.488Z,16.10
2018-06-05T03:06:29.181Z,16.10
2018-06-05T03:08:57.404Z,16.10
2018-06-05T03:11:25.961Z,16.10
2018-06-05T03:13:54.183Z,16.10
2018-06-05T03:16:22.636Z,16.00
2018-06-05T03:18:50.891Z,16.00
2018-06-05T03:21:19.226Z,16.00
2018-06-05T03:23:47.549Z,16.10
2018-06-05T03:26:15.936Z,16.00
2018-06-05T03:28:44.161Z,16.10
2018-06-05T03:31:12.493Z,16.00
2018-06-05T03:33:40.706Z,16.00
2018-06-05T03:36:09.083Z,16.00
2018-06-05T03:38:37.330Z,16.00
2018-06-05T03:41:05.778Z,16.00
2018-06-05T03:43:34.066Z,16.00
2018-06-05T03:46:02.431Z,15.90
2018-06-05T03:48:30.668Z,15.90
2018-06-05T03:50:59.169Z,15.80
2018-06-05T03:53:27.648Z,15.80
2018-06-05T03:55:57.026Z,15.80
2018-06-05T03:58:25.259Z,15.80
2018-06-05T04:00:53.607Z,15.70
2018-06-05T04:03:21.815Z,15.60
2018-06-05T04:05:50.049Z,15.60
2018-06-05T04:08:18.281Z,15.60
2018-06-05T04:10:46.496Z,15.60
2018-06-05T04:13:14.712Z,15.60
2018-06-05T04:20:39.753Z,15.50
2018-06-05T04:23:07.907Z,15.50
2018-06-05T04:25:36.293Z,15.40
2018-06-05T04:28:04.506Z,15.40
2018-06-05T04:30:32.728Z,15.50
2018-06-05T04:33:00.947Z,15.50
2018-06-05T04:35:29.285Z,15.50
2018-06-05T04:37:57.614Z,15.50
2018-06-05T04:40:25.846Z,15.60
2018-06-05T04:42:54.072Z,15.50
2018-06-05T04:45:22.331Z,15.60
2018-06-05T04:47:50.629Z,15.60
2018-06-05T04:50:18.786Z,15.60
2018-06-05T04:52:46.982Z,15.60
2018-06-05T04:55:15.261Z,15.60
2018-06-05T04:57:43.448Z,15.60
2018-06-05T05:02:39.653Z,15.60
2018-06-05T05:05:07.973Z,15.60
2018-06-05T05:07:36.227Z,15.60
2018-06-05T05:10:04.376Z,15.60
2018-06-05T05:12:32.589Z,15.70
2018-06-05T05:15:00.758Z,15.60
2018-06-05T05:17:28.951Z,15.60
2018-06-05T05:19:57.163Z,15.60
2018-06-05T05:22:25.909Z,15.60
2018-06-05T05:24:54.132Z,15.60
2018-06-05T05:27:22.405Z,15.60
2018-06-05T05:29:50.669Z,15.60
2018-06-05T05:32:18.855Z,15.60
2018-06-05T05:34:47.091Z,15.60
2018-06-05T05:37:15.343Z,15.60
2018-06-05T05:39:43.591Z,15.60
2018-06-05T05:42:11.829Z,15.60
2018-06-05T05:44:40.040Z,15.60
2018-06-05T05:47:09.480Z,15.60
2018-06-05T05:49:37.633Z,15.60
2018-06-05T05:52:05.936Z,15.70
2018-06-05T05:54:34.121Z,15.70
2018-06-05T05:57:02.468Z,15.70
2018-06-05T05:59:30.731Z,15.70
2018-06-05T06:01:58.940Z,15.70
2018-06-05T06:04:27.187Z,15.70
2018-06-05T06:06:55.443Z,15.70
2018-06-05T06:09:23.611Z,15.70
2018-06-05T06:11:51.803Z,15.70
2018-06-05T06:14:20.004Z,15.70
2018-06-05T06:16:48.309Z,15.70
2018-06-05T06:19:16.755Z,15.80
2018-06-05T06:21:44.933Z,15.80
2018-06-05T06:24:13.189Z,15.80
2018-06-05T06:26:41.465Z,15.80
2018-06-05T06:29:09.668Z,15.80
2018-06-05T06:31:37.879Z,15.80
2018-06-05T06:34:06.075Z,15.90
2018-06-05T06:36:34.307Z,15.80
2018-06-05T06:39:02.573Z,15.90
2018-06-05T06:41:30.802Z,15.90
2018-06-05T06:43:59.026Z,15.80
2018-06-05T06:46:27.517Z,15.80
2018-06-05T06:48:55.833Z,15.80
2018-06-05T06:51:23.990Z,15.80
2018-06-05T06:53:52.193Z,15.80
2018-06-05T06:56:20.563Z,15.90
2018-06-05T06:58:48.819Z,15.90
2018-06-05T07:01:17.085Z,15.90
2018-06-05T07:03:45.298Z,15.90
2018-06-05T07:08:41.508Z,15.90
2018-06-05T07:11:09.712Z,16.00
2018-06-05T07:13:37.943Z,16.00
2018-06-05T07:16:06.370Z,16.10
2018-06-05T07:18:34.569Z,16.00
2018-06-05T07:21:02.761Z,16.00
2018-06-05T07:23:30.959Z,16.00
2018-06-05T07:25:59.206Z,16.10
2018-06-05T07:28:28.362Z,16.20
2018-06-05T07:30:56.597Z,16.10
2018-06-05T07:33:24.789Z,16.20
2018-06-05T07:35:53.287Z,16.20
2018-06-05T07:38:21.636Z,16.30
2018-06-05T07:40:49.820Z,16.20
2018-06-05T07:43:18.063Z,16.20
2018-06-05T07:45:46.418Z,16.20
2018-06-05T07:48:14.645Z,16.30
2018-06-05T07:50:42.831Z,16.20
2018-06-05T07:53:11.082Z,16.20
2018-06-05T07:55:39.339Z,16.10
2018-06-05T07:58:07.530Z,16.20
2018-06-05T08:00:35.764Z,16.20
2018-06-05T08:03:03.936Z,16.20
2018-06-05T08:05:32.270Z,16.20
2018-06-05T08:08:00.463Z,16.30
2018-06-05T08:10:28.663Z,16.40
2018-06-05T08:12:56.883Z,16.30
2018-06-05T08:15:25.216Z,16.30
2018-06-05T08:17:53.523Z,16.20
2018-06-05T08:20:22.864Z,16.30
2018-06-05T08:22:53.100Z,16.40
2018-06-05T08:25:21.530Z,16.50
2018-06-05T08:27:49.811Z,16.40
2018-06-05T08:30:18.089Z,16.40
2018-06-05T08:32:46.862Z,16.30
2018-06-05T08:37:43.215Z,16.30
2018-06-05T08:40:11.396Z,16.20
2018-06-05T08:42:39.615Z,16.30
2018-06-05T08:45:07.907Z,16.30
2018-06-05T08:47:36.160Z,16.30
2018-06-05T08:50:04.594Z,16.40
2018-06-05T08:52:32.830Z,16.50
2018-06-05T08:55:01.086Z,16.60
2018-06-05T08:57:29.415Z,16.60
2018-06-05T08:59:57.732Z,16.60
2018-06-05T09:02:25.956Z,16.60
2018-06-05T09:04:54.148Z,16.60
2018-06-05T09:07:22.415Z,16.60
2018-06-05T09:09:50.603Z,16.60
2018-06-05T09:14:46.860Z,16.70
2018-06-05T09:17:15.083Z,16.80
2018-06-05T09:19:43.303Z,16.80
2018-06-05T09:24:39.508Z,16.70
2018-06-05T09:27:07.804Z,16.80
2018-06-05T09:29:36.038Z,16.80
2018-06-05T09:32:04.334Z,16.90
2018-06-05T09:34:32.731Z,17.00
2018-06-05T09:37:01.141Z,17.10
2018-06-05T09:39:29.355Z,17.10
2018-06-05T09:41:57.604Z,17.20
2018-06-05T09:44:25.853Z,17.10
2018-06-05T09:49:22.106Z,17.10
2018-06-05T09:51:50.353Z,17.20
2018-06-05T09:54:18.503Z,17.20
2018-06-05T09:56:46.851Z,17.10
2018-06-05T09:59:15.119Z,16.90
2018-06-05T10:01:43.254Z,16.90
2018-06-05T10:04:11.463Z,16.80
2018-06-05T10:06:39.737Z,16.80
2018-06-05T10:09:08.274Z,16.90
2018-06-05T10:11:37.313Z,16.90
2018-06-05T10:14:05.546Z,16.90
2018-06-05T10:16:33.923Z,17.00
2018-06-05T10:19:02.194Z,17.10
2018-06-05T10:23:58.577Z,17.20
2018-06-05T10:26:26.992Z,17.20
2018-06-05T10:28:55.206Z,17.00
2018-06-05T10:33:52.415Z,17.00
2018-06-05T10:36:21.051Z,17.20
2018-06-05T10:38:49.293Z,17.30
2018-06-05T10:41:17.555Z,17.20
2018-06-05T10:43:45.805Z,17.20
2018-06-05T10:46:14.297Z,17.10
2018-06-05T10:48:42.541Z,17.10
2018-06-05T10:51:11.152Z,17.00
2018-06-05T10:53:39.563Z,17.20
2018-06-05T10:56:07.889Z,17.40
2018-06-05T11:01:04.945Z,17.60
2018-06-05T11:03:33.146Z,17.50
2018-06-05T11:06:01.404Z,17.70
2018-06-05T11:08:29.595Z,17.70
2018-06-05T11:10:57.794Z,17.70
2018-06-05T11:13:26.015Z,17.70
2018-06-05T11:18:22.251Z,17.60
2018-06-05T11:20:50.439Z,17.70
2018-06-05T11:23:18.633Z,17.70
2018-06-05T11:25:47.029Z,17.70
2018-06-05T11:28:15.296Z,17.70
2018-06-05T11:30:43.482Z,17.50
2018-06-05T11:33:11.718Z,17.50
2018-06-05T11:35:40.183Z,17.70
2018-06-05T11:38:08.374Z,17.70
2018-06-05T11:40:36.562Z,17.70
2018-06-05T11:43:04.744Z,17.70
2018-06-05T11:45:33.035Z,17.90
2018-06-05T11:48:01.305Z,17.80
2018-06-05T11:50:29.587Z,17.90
2018-06-05T11:52:57.826Z,17.80
2018-06-05T11:55:26.179Z,17.90
2018-06-05T11:57:54.386Z,17.90
2018-06-05T12:00:22.621Z,17.90
2018-06-05T12:02:50.894Z,18.00
2018-06-05T12:05:19.284Z,17.90
2018-06-05T12:07:47.704Z,17.80
2018-06-05T12:10:16.084Z,17.70
2018-06-05T12:12:44.315Z,17.50
2018-06-05T12:15:12.543Z,17.60
2018-06-05T12:17:40.764Z,17.80
2018-06-05T12:20:08.648Z,17.80
2018-06-05T12:22:37.715Z,17.70
2018-06-05T12:25:06.109Z,17.70
2018-06-05T12:27:34.960Z,17.80
2018-06-05T12:30:03.190Z,17.80
2018-06-05T12:32:31.408Z,17.80
2018-06-05T12:34:59.734Z,17.70
2018-06-05T12:37:27.978Z,17.70
2018-06-05T12:39:56.507Z,17.70
2018-06-05T12:42:24.810Z,17.90
2018-06-05T12:44:52.999Z,17.80
2018-06-05T12:47:21.170Z,17.70
2018-06-05T12:49:49.406Z,17.80
2018-06-05T12:52:17.625Z,17.80
2018-06-05T12:54:46.258Z,17.70
2018-06-05T12:57:15.698Z,17.80
2018-06-05T12:59:43.870Z,17.70
2018-06-05T13:02:12.102Z,17.70
2018-06-05T13:04:40.360Z,17.80
2018-06-05T13:07:08.568Z,17.90
2018-06-05T13:09:36.753Z,17.80
2018-06-05T13:12:04.986Z,18.00
2018-06-05T13:14:33.115Z,18.00
2018-06-05T13:17:01.498Z,18.00
2018-06-05T13:19:29.799Z,18.00
2018-06-05T13:21:58.042Z,18.00
2018-06-05T13:24:26.258Z,18.10
2018-06-05T13:27:07.238Z,18.00
2018-06-05T13:29:35.487Z,18.00
2018-06-05T13:32:03.744Z,18.00
2018-06-05T13:34:31.946Z,18.00
2018-06-05T13:37:00.243Z,17.90
2018-06-05T13:39:28.384Z,17.90
2018-06-05T13:41:56.625Z,18.00
2018-06-05T13:44:25.322Z,17.90
2018-06-05T13:46:53.652Z,18.00
2018-06-05T13:49:21.833Z,17.90
2018-06-05T13:51:50.014Z,17.80
2018-06-05T13:54:18.249Z,17.90
2018-06-05T13:56:46.431Z,18.00
2018-06-05T13:59:14.637Z,18.00
2018-06-05T14:01:42.844Z,18.00
2018-06-05T14:04:11.062Z,18.10
2018-06-05T14:06:39.531Z,18.10
2018-06-05T14:09:08.337Z,18.30
2018-06-05T14:14:04.838Z,18.40
2018-06-05T14:16:33.189Z,18.60
2018-06-05T14:19:01.469Z,18.70
2018-06-05T14:21:29.728Z,18.60
2018-06-05T14:23:58.002Z,18.60
2018-06-05T14:26:27.396Z,18.70
2018-06-05T14:28:55.903Z,18.60
2018-06-05T14:31:24.996Z,18.40
2018-06-05T14:33:53.221Z,18.30
2018-06-05T14:36:21.378Z,18.20
2018-06-05T14:41:17.636Z,18.20
2018-06-05T14:43:45.796Z,18.40
2018-06-05T14:46:14.148Z,18.60
2018-06-05T14:48:42.375Z,19.10
2018-06-05T14:51:10.714Z,19.30
2018-06-05T14:53:38.971Z,18.80
2018-06-05T14:56:07.200Z,18.40
2018-06-05T14:58:35.435Z,18.30
2018-06-05T15:03:31.654Z,18.30
2018-06-05T15:05:59.975Z,18.40
2018-06-05T15:08:28.193Z,18.40
2018-06-05T15:10:56.366Z,18.40
2018-06-05T15:13:24.590Z,18.50
2018-06-05T15:15:52.800Z,18.30
2018-06-05T15:18:21.082Z,18.20
2018-06-05T15:20:49.283Z,18.20
2018-06-05T15:23:17.736Z,18.20
2018-06-05T15:25:46.150Z,18.20
2018-06-05T15:28:14.388Z,18.10
2018-06-05T15:30:42.621Z,18.00
2018-06-05T15:33:10.896Z,18.10
2018-06-05T15:35:39.258Z,18.10
2018-06-05T15:38:07.577Z,18.20
2018-06-05T15:40:35.813Z,18.20
2018-06-05T15:43:04.076Z,18.10
2018-06-05T15:45:32.374Z,18.10
2018-06-05T15:48:00.611Z,18.10
2018-06-05T15:50:29.003Z,18.10
2018-06-05T15:52:57.167Z,18.10
2018-06-05T15:55:25.452Z,18.10
2018-06-05T15:57:53.746Z,18.00
2018-06-05T16:00:21.972Z,18.10
2018-06-05T16:02:50.180Z,18.10
2018-06-05T16:05:18.658Z,18.10
2018-06-05T16:07:47.270Z,18.00
2018-06-05T16:10:15.509Z,18.10
2018-06-05T16:12:43.679Z,18.10
2018-06-05T16:15:12.038Z,18.20
2018-06-05T16:17:40.316Z,18.10
2018-06-05T16:20:08.532Z,18.10
2018-06-05T16:22:36.755Z,18.10
2018-06-05T16:25:07.038Z,18.10
2018-06-05T16:27:35.279Z,18.10
2018-06-05T16:30:03.572Z,18.20
2018-06-05T16:32:31.798Z,18.20
2018-06-05T16:34:59.969Z,18.10
2018-06-05T16:37:28.145Z,18.00
2018-06-05T16:39:56.370Z,17.90
2018-06-05T16:42:24.626Z,17.80
2018-06-05T16:44:52.879Z,17.90
2018-06-05T16:47:21.115Z,17.90
2018-06-05T16:49:49.326Z,17.90
2018-06-05T16:52:17.552Z,17.90
2018-06-05T16:54:45.806Z,17.90
2018-06-05T16:57:14.199Z,17.80
2018-06-05T16:59:42.561Z,17.80
2018-06-05T17:02:10.980Z,17.80
2018-06-05T17:04:39.361Z,17.70
2018-06-05T17:07:07.491Z,17.70
2018-06-05T17:09:35.661Z,17.70
2018-06-05T17:12:03.822Z,17.80
2018-06-05T17:14:31.987Z,17.80
2018-06-05T17:17:00.411Z,17.80
2018-06-05T17:19:28.662Z,17.80
2018-06-05T17:21:56.929Z,17.80
2018-06-05T17:24:25.217Z,17.70
2018-06-05T17:26:53.416Z,17.70
2018-06-05T17:29:21.645Z,17.60
2018-06-05T17:31:49.911Z,17.50
2018-06-05T17:34:18.092Z,17.50
2018-06-05T17:36:47.383Z,17.50
2018-06-05T17:39:15.637Z,17.50
2018-06-05T17:41:44.022Z,17.50
2018-06-05T17:44:12.233Z,17.40
2018-06-05T17:46:40.449Z,17.40
2018-06-05T17:49:08.657Z,17.40
2018-06-05T17:51:36.965Z,17.40
2018-06-05T17:54:05.230Z,17.40
2018-06-05T17:59:01.513Z,17.30
2018-06-05T18:01:30.562Z,17.30
2018-06-05T18:03:58.785Z,17.30
2018-06-05T18:08:55.030Z,17.20
2018-06-05T18:11:23.332Z,17.20
2018-06-05T18:13:51.580Z,17.10
2018-06-05T18:16:20.118Z,17.10
2018-06-05T18:18:48.359Z,17.10
2018-06-05T18:21:16.731Z,17.00
2018-06-05T18:23:44.927Z,17.00
2018-06-05T18:26:13.288Z,16.90
2018-06-05T18:28:41.668Z,16.90
2018-06-05T18:31:09.911Z,16.90
2018-06-05T18:33:38.099Z,16.90
2018-06-05T18:36:06.503Z,16.80
2018-06-05T18:38:34.690Z,16.80
2018-06-05T18:41:02.859Z,16.80
2018-06-05T18:43:31.061Z,16.80
2018-06-05T18:45:59.491Z,16.70
2018-06-05T18:48:27.784Z,16.70
2018-06-05T18:50:56.498Z,16.70
2018-06-05T18:53:24.825Z,16.70
2018-06-05T18:55:53.188Z,16.60
2018-06-05T18:58:21.403Z,16.60
2018-06-05T19:00:49.639Z,16.60
2018-06-05T19:03:17.830Z,16.50
2018-06-05T19:05:46.178Z,16.50
2018-06-05T19:08:14.454Z,16.40
2018-06-05T19:10:42.861Z,16.40
2018-06-05T19:13:11.113Z,16.40
2018-06-05T19:15:39.457Z,16.40
2018-06-05T19:18:07.682Z,16.40
2018-06-05T19:20:35.952Z,16.40
2018-06-05T19:23:04.182Z,16.30
2018-06-05T19:25:32.573Z,16.30
2018-06-05T19:28:00.874Z,16.30
2018-06-05T19:30:29.215Z,16.30
2018-06-05T19:32:57.526Z,16.20
2018-06-05T19:35:26.969Z,16.30
2018-06-05T19:40:23.176Z,16.20
2018-06-05T19:42:51.452Z,16.30
2018-06-05T19:45:19.817Z,16.20
2018-06-05T19:47:48.266Z,16.20
2018-06-05T19:50:16.793Z,16.10
2018-06-05T19:52:44.984Z,16.10
2018-06-05T19:55:13.261Z,16.10
2018-06-05T19:57:41.524Z,16.20
2018-06-05T20:00:09.933Z,16.10
2018-06-05T20:02:38.475Z,16.20
2018-06-05T20:05:06.759Z,16.20
2018-06-05T20:07:35.049Z,16.20
2018-06-05T20:10:03.557Z,16.10
2018-06-05T20:12:32.116Z,16.10
2018-06-05T20:15:00.526Z,16.20
2018-06-05T20:17:29.764Z,16.20
2018-06-05T20:19:58.053Z,16.10
2018-06-05T20:22:26.307Z,16.10
2018-06-05T20:24:54.734Z,16.10
2018-06-05T20:27:24.769Z,16.10
2018-06-05T20:29:53.018Z,16.00
2018-06-05T20:32:21.266Z,16.00
2018-06-05T20:34:49.700Z,15.90
2018-06-05T20:37:18.144Z,15.90
2018-06-05T20:39:46.385Z,15.80
2018-06-05T20:42:14.620Z,15.90
2018-06-05T20:44:42.859Z,15.90
2018-06-05T20:47:13.161Z,15.90
2018-06-05T20:49:41.343Z,15.90
2018-06-05T20:52:09.576Z,15.80
2018-06-05T20:54:38.040Z,15.80
2018-06-05T20:57:06.267Z,15.70
2018-06-05T20:59:34.460Z,15.70
2018-06-05T21:02:09.222Z,15.70
2018-06-05T21:04:37.557Z,15.60
2018-06-05T21:07:05.992Z,15.60
2018-06-05T21:09:35.175Z,15.60
2018-06-05T21:12:03.384Z,15.50
2018-06-05T21:14:31.707Z,15.50
2018-06-05T21:17:00.055Z,15.50
2018-06-05T21:19:28.240Z,15.50
2018-06-05T21:21:56.433Z,15.40
2018-06-05T21:24:24.781Z,15.40
2018-06-05T21:26:53.157Z,15.40
2018-06-05T21:29:21.375Z,15.30
2018-06-05T21:31:49.593Z,15.30
2018-06-05T21:34:17.846Z,15.20
2018-06-05T21:36:46.255Z,15.10
2018-06-05T21:39:14.484Z,15.10
2018-06-05T21:41:42.684Z,15.10
2018-06-05T21:44:10.927Z,15.10
2018-06-05T21:46:39.118Z,15.00
2018-06-05T21:49:07.355Z,15.00
2018-06-05T21:51:35.572Z,14.90
2018-06-05T21:54:03.795Z,14.90
2018-06-05T21:56:32.028Z,14.90
2018-06-05T21:59:00.254Z,14.80
2018-06-05T22:01:28.472Z,14.80
2018-06-05T22:03:56.636Z,14.80
2018-06-05T22:06:24.860Z,14.70
2018-06-05T22:08:53.011Z,14.70
2018-06-05T22:11:21.209Z,14.70
2018-06-05T22:13:49.474Z,14.70
2018-06-05T22:16:17.791Z,14.70
2018-06-05T22:21:13.971Z,14.70
2018-06-05T22:23:42.345Z,14.60
2018-06-05T22:26:10.764Z,14.60
2018-06-05T22:28:39.096Z,14.50
2018-06-05T22:31:07.271Z,14.50
2018-06-05T22:33:35.605Z,14.50
2018-06-05T22:36:03.856Z,14.50
2018-06-05T22:38:32.033Z,14.40
2018-06-05T22:41:00.264Z,14.40
2018-06-05T22:43:28.544Z,14.40
2018-06-05T22:45:56.921Z,14.40
2018-06-05T22:48:25.132Z,14.30
2018-06-05T22:50:53.310Z,14.30
2018-06-05T22:53:21.599Z,14.20
2018-06-05T22:55:49.844Z,14.20
2018-06-05T22:58:18.029Z,14.10
2018-06-05T23:00:46.293Z,14.10
2018-06-05T23:03:14.575Z,14.10
2018-06-05T23:05:42.952Z,14.10
2018-06-05T23:08:11.214Z,14.00
2018-06-05T23:10:39.423Z,14.00
2018-06-05T23:13:07.646Z,13.90
2018-06-05T23:15:36.025Z,13.90
2018-06-05T23:18:04.192Z,13.90
2018-06-05T23:20:32.387Z,13.90
2018-06-05T23:23:00.584Z,13.90
2018-06-05T23:25:28.980Z,13.90
2018-06-05T23:27:57.227Z,13.80
2018-06-05T23:30:25.442Z,13.80
2018-06-05T23:32:53.638Z,13.80
2018-06-05T23:35:22.028Z,13.80
2018-06-05T23:37:50.255Z,13.80
2018-06-05T23:40:18.435Z,13.70
2018-06-05T23:42:46.690Z,13.70
2018-06-05T23:45:14.970Z,13.60
2018-06-05T23:47:43.528Z,13.60
2018-06-05T23:50:11.830Z,13.60
2018-06-05T23:52:40.093Z,13.60
2018-06-05T23:55:08.593Z,13.50
2018-06-05T23:57:36.763Z,13.50
